createdAt,value
2023-05-10T00:01:55.534Z,81.09
2023-05-10T00:04:22.378Z,80.76
2023-05-10T00:06:48.785Z,79.49
2023-05-10T00:09:15.128Z,79.45
2023-05-10T00:11:41.511Z,80.05
2023-05-10T00:14:07.868Z,78.43
2023-05-10T00:16:34.522Z,78.56
2023-05-10T00:19:00.902Z,79.42
2023-05-10T00:21:29.099Z,79.30
2023-05-10T00:23:55.722Z,79.92
2023-05-10T00:26:22.062Z,79.85
2023-05-10T00:28:48.464Z,79.71
2023-05-10T00:31:15.633Z,80.28
2023-05-10T00:33:42.002Z,80.35
2023-05-10T00:36:08.554Z,80.10
2023-05-10T00:38:34.999Z,80.59
2023-05-10T00:41:01.473Z,80.41
2023-05-10T00:43:27.803Z,80.11
2023-05-10T00:45:54.443Z,80.42
2023-05-10T00:48:21.622Z,80.16
2023-05-10T00:50:48.118Z,79.86
2023-05-10T00:53:16.034Z,79.49
2023-05-10T00:55:42.684Z,79.41
2023-05-10T00:58:09.377Z,79.96
2023-05-10T01:00:37.246Z,79.46
2023-05-10T01:03:03.824Z,79.95
2023-05-10T01:05:30.464Z,80.07
2023-05-10T01:07:57.263Z,79.79
2023-05-10T01:10:23.730Z,79.01
2023-05-10T01:12:50.427Z,79.34
2023-05-10T01:15:18.039Z,79.34
2023-05-10T01:17:46.516Z,79.49
2023-05-10T01:20:13.554Z,79.58
2023-05-10T01:23:11.149Z,79.54
2023-05-10T01:25:49.784Z,79.60
2023-05-10T01:28:35.221Z,78.75
2023-05-10T01:31:18.169Z,78.93
2023-05-10T01:34:00.094Z,78.43
2023-05-10T01:36:32.640Z,78.21
2023-05-10T01:39:26.581Z,78.81
2023-05-10T01:42:06.173Z,78.49
2023-05-10T01:44:38.383Z,79.79
2023-05-10T01:47:13.872Z,79.63
2023-05-10T01:49:48.719Z,78.82
2023-05-10T01:52:20.166Z,78.12
2023-05-10T01:54:54.791Z,77.89
2023-05-10T01:57:23.223Z,77.55
2023-05-10T01:59:51.581Z,77.91
2023-05-10T02:02:21.481Z,77.75
2023-05-10T02:04:48.603Z,77.13
2023-05-10T02:07:15.505Z,76.73
2023-05-10T02:09:45.012Z,76.34
2023-05-10T02:12:14.598Z,77.30
2023-05-10T02:14:43.407Z,77.91
2023-05-10T02:17:10.811Z,77.60
2023-05-10T02:19:39.733Z,77.17
2023-05-10T02:22:07.350Z,77.76
2023-05-10T02:24:35.520Z,77.76
2023-05-10T02:27:04.184Z,77.83
2023-05-10T02:29:33.190Z,78.20
2023-05-10T02:32:00.948Z,79.04
2023-05-10T02:34:28.667Z,79.05
2023-05-10T02:36:56.200Z,78.44
2023-05-10T02:39:24.450Z,77.76
2023-05-10T02:41:53.176Z,78.43
2023-05-10T02:44:21.331Z,79.03
2023-05-10T02:46:47.969Z,79.77
2023-05-10T02:49:14.917Z,79.21
2023-05-10T02:51:56.336Z,78.80
2023-05-10T02:54:28.588Z,78.15
2023-05-10T02:56:58.021Z,78.09
2023-05-10T02:59:24.433Z,77.59
2023-05-10T03:01:50.875Z,78.94
2023-05-10T03:04:17.382Z,79.43
2023-05-10T03:06:44.650Z,78.65
2023-05-10T03:09:13.184Z,77.83
2023-05-10T03:12:19.565Z,78.25
2023-05-10T03:14:53.792Z,77.43
2023-05-10T03:17:47.942Z,77.80
2023-05-10T03:20:23.260Z,78.20
2023-05-10T03:22:56.193Z,76.57
2023-05-10T03:25:23.942Z,77.48
2023-05-10T03:27:50.924Z,78.37
2023-05-10T03:30:18.329Z,78.60
2023-05-10T03:32:45.228Z,78.71
2023-05-10T03:35:13.521Z,78.73
2023-05-10T03:37:40.022Z,78.91
2023-05-10T03:40:08.425Z,78.97
2023-05-10T03:42:34.953Z,78.67
2023-05-10T03:45:01.409Z,78.42
2023-05-10T03:47:27.843Z,78.71
2023-05-10T03:49:54.193Z,79.41
2023-05-10T03:52:20.686Z,79.42
2023-05-10T03:54:47.022Z,79.92
2023-05-10T03:57:13.354Z,79.88
2023-05-10T03:59:39.806Z,79.37
2023-05-10T04:02:06.707Z,79.04
2023-05-10T04:04:33.132Z,79.48
2023-05-10T04:06:59.489Z,79.48
2023-05-10T04:09:26.204Z,79.94
2023-05-10T04:11:52.564Z,79.57
2023-05-10T04:14:18.949Z,79.81
2023-05-10T04:16:45.905Z,79.72
2023-05-10T04:19:12.530Z,80.28
2023-05-10T04:21:38.908Z,80.87
2023-05-10T04:24:05.456Z,80.99
2023-05-10T04:26:32.210Z,80.70
2023-05-10T04:28:58.546Z,80.70
2023-05-10T04:31:24.997Z,80.74
2023-05-10T04:33:51.396Z,80.55
2023-05-10T04:36:17.760Z,80.74
2023-05-10T04:38:44.609Z,80.50
2023-05-10T04:41:11.715Z,80.03
2023-05-10T04:43:39.286Z,80.35
2023-05-10T04:46:06.776Z,79.30
2023-05-10T04:48:33.355Z,79.70
2023-05-10T04:50:59.796Z,79.62
2023-05-10T04:53:26.241Z,79.96
2023-05-10T04:55:52.623Z,79.18
2023-05-10T04:58:19.019Z,79.23
2023-05-10T05:00:45.386Z,79.10
2023-05-10T05:03:11.864Z,79.19
2023-05-10T05:05:38.255Z,79.62
2023-05-10T05:08:04.937Z,79.30
2023-05-10T05:10:31.275Z,80.11
2023-05-10T05:12:57.877Z,79.55
2023-05-10T05:15:24.354Z,79.39
2023-05-10T05:17:50.718Z,80.04
2023-05-10T05:20:17.621Z,78.66
2023-05-10T05:22:44.171Z,79.63
2023-05-10T05:25:10.679Z,80.14
2023-05-10T05:27:37.018Z,79.30
2023-05-10T05:30:03.696Z,78.81
2023-05-10T05:32:30.131Z,78.92
2023-05-10T05:34:56.694Z,78.66
2023-05-10T05:37:23.616Z,78.87
2023-05-10T05:39:49.974Z,78.63
2023-05-10T05:42:17.529Z,79.15
2023-05-10T05:44:44.077Z,79.61
2023-05-10T05:47:10.417Z,78.70
2023-05-10T05:49:36.797Z,78.53
2023-05-10T05:52:05.049Z,78.46
2023-05-10T05:54:32.360Z,77.59
2023-05-10T05:57:01.207Z,77.97
2023-05-10T05:59:28.038Z,78.92
2023-05-10T06:01:54.543Z,79.32
2023-05-10T06:04:20.921Z,78.84
2023-05-10T06:06:47.285Z,78.90
2023-05-10T06:09:13.870Z,77.84
2023-05-10T06:11:40.183Z,78.19
2023-05-10T06:14:08.073Z,78.11
2023-05-10T06:16:35.883Z,78.33
2023-05-10T06:19:03.190Z,78.58
2023-05-10T06:21:29.888Z,77.62
2023-05-10T06:23:56.217Z,77.67
2023-05-10T06:26:22.576Z,77.96
2023-05-10T06:28:49.001Z,77.52
2023-05-10T06:31:15.443Z,77.51
2023-05-10T06:33:41.811Z,76.88
2023-05-10T06:36:08.195Z,76.24
2023-05-10T06:38:34.537Z,76.57
2023-05-10T06:41:01.503Z,76.20
2023-05-10T06:43:29.466Z,75.14
2023-05-10T06:45:55.834Z,75.00
2023-05-10T06:48:22.302Z,75.44
2023-05-10T06:50:48.728Z,75.99
2023-05-10T06:53:15.051Z,76.15
2023-05-10T06:55:41.360Z,75.73
2023-05-10T06:58:07.716Z,74.94
2023-05-10T07:00:34.120Z,74.73
2023-05-10T07:03:00.520Z,75.18
2023-05-10T07:05:28.845Z,75.77
2023-05-10T07:07:55.454Z,76.47
2023-05-10T07:10:21.799Z,76.78
2023-05-10T07:12:48.302Z,76.24
2023-05-10T07:15:14.858Z,75.68
2023-05-10T07:17:43.268Z,75.67
2023-05-10T07:20:11.985Z,76.96
2023-05-10T07:22:38.354Z,77.25
2023-05-10T07:25:05.286Z,76.97
2023-05-10T07:27:31.649Z,77.17
2023-05-10T07:29:58.023Z,77.06
2023-05-10T07:32:24.706Z,76.78
2023-05-10T07:34:51.125Z,77.01
2023-05-10T07:37:17.501Z,77.28
2023-05-10T07:39:44.050Z,76.75
2023-05-10T07:42:10.372Z,78.06
2023-05-10T07:44:36.711Z,76.91
2023-05-10T07:47:03.037Z,76.54
2023-05-10T07:49:29.529Z,76.19
2023-05-10T07:51:55.886Z,76.92
2023-05-10T07:54:22.489Z,76.75
2023-05-10T07:56:49.149Z,75.75
2023-05-10T07:59:17.660Z,76.70
2023-05-10T08:01:44.811Z,76.31
2023-05-10T08:04:11.321Z,75.02
2023-05-10T08:06:37.913Z,74.00
2023-05-10T08:09:04.256Z,74.59
2023-05-10T08:11:31.164Z,75.46
2023-05-10T08:13:57.742Z,74.71
2023-05-10T08:16:24.151Z,74.01
2023-05-10T08:18:51.643Z,74.30
2023-05-10T08:21:18.223Z,74.48
2023-05-10T08:23:45.292Z,73.18
2023-05-10T08:26:11.999Z,73.67
2023-05-10T08:28:38.454Z,73.31
2023-05-10T08:31:06.216Z,71.40
2023-05-10T08:33:32.752Z,72.89
2023-05-10T08:35:59.114Z,70.62
2023-05-10T08:38:26.044Z,71.57
2023-05-10T08:40:57.268Z,71.94
2023-05-10T08:43:28.284Z,71.51
2023-05-10T08:45:56.297Z,72.61
2023-05-10T08:48:24.968Z,72.66
2023-05-10T08:50:54.578Z,71.54
2023-05-10T08:53:21.927Z,70.77
2023-05-10T08:55:48.366Z,70.91
2023-05-10T08:58:15.028Z,70.22
2023-05-10T09:00:41.678Z,71.04
2023-05-10T09:03:08.123Z,70.12
2023-05-10T09:05:34.632Z,70.89
2023-05-10T09:08:03.892Z,69.27
2023-05-10T09:10:31.753Z,69.81
2023-05-10T09:12:59.531Z,68.80
2023-05-10T09:15:26.542Z,67.83
2023-05-10T09:17:53.190Z,66.59
2023-05-10T09:20:19.785Z,67.99
2023-05-10T09:22:46.172Z,66.78
2023-05-10T09:25:14.757Z,66.97
2023-05-10T09:27:45.808Z,67.85
2023-05-10T09:30:17.098Z,66.68
2023-05-10T09:32:46.017Z,67.58
2023-05-10T09:35:17.960Z,67.54
2023-05-10T09:37:47.139Z,64.72
2023-05-10T09:40:16.945Z,65.31
2023-05-10T09:42:51.627Z,65.12
2023-05-10T09:45:18.224Z,64.94
2023-05-10T09:47:45.379Z,65.53
2023-05-10T09:50:11.727Z,65.39
2023-05-10T09:52:48.038Z,65.38
2023-05-10T09:55:16.523Z,64.90
2023-05-10T09:57:43.152Z,64.97
2023-05-10T10:00:11.120Z,64.27
2023-05-10T10:02:37.627Z,64.50
2023-05-10T10:05:04.695Z,64.67
2023-05-10T10:07:31.447Z,65.20
2023-05-10T10:09:59.394Z,64.98
2023-05-10T10:12:26.504Z,65.42
2023-05-10T10:14:53.864Z,61.71
2023-05-10T10:17:20.875Z,61.83
2023-05-10T10:19:49.189Z,61.08
2023-05-10T10:22:15.514Z,61.11
2023-05-10T10:24:42.542Z,61.43
2023-05-10T10:27:17.634Z,61.46
2023-05-10T10:29:59.737Z,59.45
2023-05-10T10:32:28.724Z,60.37
2023-05-10T10:34:56.086Z,60.41
2023-05-10T10:37:22.741Z,60.09
2023-05-10T10:39:51.201Z,60.17
2023-05-10T10:42:50.874Z,59.67
2023-05-10T10:45:17.486Z,58.63
2023-05-10T10:47:45.048Z,59.61
2023-05-10T10:50:13.744Z,59.78
2023-05-10T10:52:46.908Z,59.24
2023-05-10T10:55:20.705Z,60.13
2023-05-10T10:57:52.662Z,60.30
2023-05-10T11:00:28.459Z,60.70
2023-05-10T11:03:09.948Z,58.77
2023-05-10T11:05:49.205Z,58.11
2023-05-10T11:08:28.986Z,58.72
2023-05-10T11:11:01.173Z,59.50
2023-05-10T11:13:32.626Z,59.61
2023-05-10T11:16:00.221Z,60.89
2023-05-10T11:18:30.625Z,60.63
2023-05-10T11:21:03.596Z,59.17
2023-05-10T11:23:48.011Z,58.11
2023-05-10T11:26:14.673Z,59.29
2023-05-10T11:28:45.263Z,58.72
2023-05-10T11:31:14.136Z,57.00
2023-05-10T11:33:56.985Z,55.41
2023-05-10T11:36:28.320Z,56.10
2023-05-10T11:38:56.225Z,55.83
2023-05-10T11:41:24.298Z,55.25
2023-05-10T11:43:52.353Z,54.47
2023-05-10T11:46:21.408Z,55.18
2023-05-10T11:48:51.326Z,56.18
2023-05-10T11:51:22.070Z,56.57
2023-05-10T11:53:48.509Z,56.11
2023-05-10T11:56:14.875Z,55.92
2023-05-10T11:58:41.242Z,56.16
2023-05-10T12:01:09.901Z,56.72
2023-05-10T12:03:37.235Z,56.20
2023-05-10T12:06:04.379Z,53.87
2023-05-10T12:08:31.725Z,54.32
2023-05-10T12:11:09.443Z,54.70
2023-05-10T12:13:42.603Z,54.53
2023-05-10T12:16:23.750Z,54.12
2023-05-10T12:18:55.083Z,53.43
2023-05-10T12:21:22.054Z,53.30
2023-05-10T12:23:52.138Z,55.01
2023-05-10T12:26:19.056Z,54.33
2023-05-10T12:28:46.010Z,53.90
2023-05-10T12:31:12.446Z,53.44
2023-05-10T12:33:44.722Z,53.21
2023-05-10T12:36:15.792Z,54.25
2023-05-10T12:38:44.264Z,53.44
2023-05-10T12:41:15.651Z,52.44
2023-05-10T12:43:42.336Z,52.76
2023-05-10T12:46:13.714Z,52.54
2023-05-10T12:48:41.932Z,52.35
2023-05-10T12:51:13.926Z,52.81
2023-05-10T12:53:41.806Z,52.33
2023-05-10T12:56:10.775Z,51.90
2023-05-10T12:58:37.104Z,51.86
2023-05-10T13:01:04.108Z,51.11
2023-05-10T13:03:30.652Z,50.65
2023-05-10T13:05:57.167Z,50.24
2023-05-10T13:08:23.626Z,50.83
2023-05-10T13:10:50.238Z,49.97
2023-05-10T13:13:16.651Z,51.26
2023-05-10T13:15:43.066Z,51.45
2023-05-10T13:18:09.445Z,50.20
2023-05-10T13:20:35.948Z,49.88
2023-05-10T13:23:03.412Z,50.62
2023-05-10T13:25:29.857Z,50.49
2023-05-10T13:27:56.208Z,51.99
2023-05-10T13:30:22.615Z,51.75
2023-05-10T13:32:49.064Z,51.94
2023-05-10T13:35:15.637Z,51.67
2023-05-10T13:37:42.112Z,51.98
2023-05-10T13:40:08.968Z,52.02
2023-05-10T13:42:35.699Z,50.59
2023-05-10T13:45:02.683Z,50.56
2023-05-10T13:47:29.442Z,50.50
2023-05-10T13:49:56.105Z,49.96
2023-05-10T13:52:22.666Z,51.40
2023-05-10T13:54:49.108Z,52.11
2023-05-10T13:57:17.559Z,51.99
2023-05-10T13:59:43.900Z,52.96
2023-05-10T14:02:10.442Z,51.24
2023-05-10T14:04:36.858Z,52.15
2023-05-10T14:07:03.208Z,52.95
2023-05-10T14:09:29.565Z,51.98
2023-05-10T14:11:56.717Z,51.51
2023-05-10T14:14:23.094Z,50.62
2023-05-10T14:16:49.654Z,51.46
2023-05-10T14:19:16.150Z,50.84
2023-05-10T14:21:42.490Z,52.07
2023-05-10T14:24:08.833Z,49.64
2023-05-10T14:26:35.524Z,49.57
2023-05-10T14:29:02.027Z,48.94
2023-05-10T14:31:28.524Z,49.52
2023-05-10T14:33:54.940Z,49.93
2023-05-10T14:36:21.253Z,50.04
2023-05-10T14:38:47.623Z,49.78
2023-05-10T14:41:15.957Z,49.75
2023-05-10T14:43:42.298Z,48.47
2023-05-10T14:46:09.507Z,48.27
2023-05-10T14:48:36.065Z,47.70
2023-05-10T14:51:02.902Z,47.52
2023-05-10T14:53:29.679Z,48.43
2023-05-10T14:55:56.037Z,46.92
2023-05-10T14:58:22.429Z,49.06
2023-05-10T15:00:48.759Z,49.49
2023-05-10T15:03:15.422Z,48.32
2023-05-10T15:05:42.351Z,49.59
2023-05-10T15:08:10.085Z,49.50
2023-05-10T15:10:37.602Z,50.20
2023-05-10T15:13:05.057Z,50.74
2023-05-10T15:15:31.641Z,50.82
2023-05-10T15:17:58.078Z,50.21
2023-05-10T15:20:24.449Z,50.39
2023-05-10T15:22:51.056Z,51.34
2023-05-10T15:25:18.049Z,51.68
2023-05-10T15:27:44.702Z,50.91
2023-05-10T15:30:11.695Z,50.01
2023-05-10T15:32:38.212Z,49.60
2023-05-10T15:35:04.950Z,50.08
2023-05-10T15:37:31.289Z,51.42
2023-05-10T15:40:04.217Z,52.04
2023-05-10T15:42:31.492Z,52.39
2023-05-10T15:44:58.062Z,52.79
2023-05-10T15:47:25.481Z,52.92
2023-05-10T15:49:51.944Z,51.71
2023-05-10T15:52:19.141Z,51.83
2023-05-10T15:54:45.536Z,52.03
2023-05-10T15:57:11.911Z,51.12
2023-05-10T15:59:38.259Z,51.59
2023-05-10T16:02:04.597Z,54.37
2023-05-10T16:04:30.927Z,55.76
2023-05-10T16:06:57.271Z,55.87
2023-05-10T16:09:23.601Z,57.06
2023-05-10T16:11:49.927Z,57.96
2023-05-10T16:14:17.000Z,58.52
2023-05-10T16:16:43.458Z,58.87
2023-05-10T16:19:09.914Z,58.33
2023-05-10T16:21:36.441Z,58.58
2023-05-10T16:24:03.120Z,58.74
2023-05-10T16:26:29.467Z,57.54
2023-05-10T16:28:56.950Z,57.57
2023-05-10T16:31:23.427Z,58.49
2023-05-10T16:33:49.815Z,58.64
2023-05-10T16:36:16.133Z,57.56
2023-05-10T16:38:42.527Z,57.70
2023-05-10T16:41:08.827Z,58.08
2023-05-10T16:43:35.681Z,59.49
2023-05-10T16:46:02.361Z,58.89
2023-05-10T16:48:28.701Z,58.79
2023-05-10T16:50:55.080Z,59.56
2023-05-10T16:53:21.730Z,60.34
2023-05-10T16:55:48.118Z,59.18
2023-05-10T16:58:14.487Z,58.99
2023-05-10T17:00:41.289Z,59.25
2023-05-10T17:03:07.767Z,60.10
2023-05-10T17:05:34.236Z,60.55
2023-05-10T17:08:00.792Z,60.50
2023-05-10T17:10:27.167Z,61.47
2023-05-10T17:12:53.655Z,60.74
2023-05-10T17:15:20.643Z,59.43
2023-05-10T17:17:47.935Z,60.33
2023-05-10T17:20:14.328Z,59.85
2023-05-10T17:22:41.508Z,60.06
2023-05-10T17:25:08.281Z,60.19
2023-05-10T17:27:34.661Z,60.02
2023-05-10T17:30:00.984Z,60.87
2023-05-10T17:32:27.342Z,60.28
2023-05-10T17:34:53.702Z,61.38
2023-05-10T17:37:20.049Z,61.40
2023-05-10T17:39:46.461Z,61.58
2023-05-10T17:42:13.605Z,62.00
2023-05-10T17:44:39.960Z,62.09
2023-05-10T17:47:06.400Z,63.28
2023-05-10T17:49:32.806Z,62.54
2023-05-10T17:51:59.173Z,62.85
2023-05-10T17:54:25.499Z,63.01
2023-05-10T17:56:51.848Z,61.47
2023-05-10T17:59:18.176Z,60.49
2023-05-10T18:01:44.602Z,59.27
2023-05-10T18:04:11.039Z,56.72
2023-05-10T18:06:38.111Z,55.73
2023-05-10T18:09:07.099Z,55.49
2023-05-10T18:11:35.063Z,56.27
2023-05-10T18:14:01.398Z,56.41
2023-05-10T18:16:27.811Z,57.62
2023-05-10T18:18:54.229Z,56.83
2023-05-10T18:21:20.599Z,57.76
2023-05-10T18:23:46.919Z,57.74
2023-05-10T18:26:13.475Z,58.69
2023-05-10T18:28:39.804Z,58.69
2023-05-10T18:31:06.166Z,58.77
2023-05-10T18:33:32.557Z,57.69
2023-05-10T18:35:58.987Z,57.53
2023-05-10T18:38:25.422Z,57.88
2023-05-10T18:40:51.824Z,57.06
2023-05-10T18:43:18.147Z,57.44
2023-05-10T18:45:44.451Z,56.28
2023-05-10T18:48:10.813Z,56.23
2023-05-10T18:50:37.201Z,55.13
2023-05-10T18:53:03.558Z,55.86
2023-05-10T18:55:29.950Z,58.19
2023-05-10T18:57:56.335Z,57.55
2023-05-10T19:00:22.771Z,57.64
2023-05-10T19:02:49.145Z,58.01
2023-05-10T19:05:15.937Z,58.03
2023-05-10T19:07:43.816Z,57.82
2023-05-10T19:10:12.794Z,59.14
2023-05-10T19:12:43.514Z,60.32
2023-05-10T19:15:10.418Z,60.46
2023-05-10T19:17:39.319Z,59.37
2023-05-10T19:20:06.918Z,60.93
2023-05-10T19:22:47.195Z,61.37
2023-05-10T19:25:20.215Z,61.26
2023-05-10T19:27:46.869Z,61.89
2023-05-10T19:30:13.388Z,62.03
2023-05-10T19:32:40.047Z,61.38
2023-05-10T19:35:06.598Z,62.30
2023-05-10T19:37:32.959Z,61.83
2023-05-10T19:39:59.524Z,62.67
2023-05-10T19:42:26.101Z,61.32
2023-05-10T19:44:52.565Z,61.19
2023-05-10T19:47:18.921Z,62.01
2023-05-10T19:49:45.335Z,60.94
2023-05-10T19:52:12.136Z,60.76
2023-05-10T19:54:38.487Z,61.58
2023-05-10T19:57:04.925Z,62.04
2023-05-10T19:59:31.418Z,62.07
2023-05-10T20:01:57.742Z,61.34
2023-05-10T20:04:24.185Z,62.68
2023-05-10T20:06:50.555Z,63.29
2023-05-10T20:09:16.891Z,63.52
2023-05-10T20:11:43.222Z,64.49
2023-05-10T20:14:09.626Z,63.53
2023-05-10T20:16:35.998Z,63.41
2023-05-10T20:19:02.653Z,64.11
2023-05-10T20:21:29.026Z,64.65
2023-05-10T20:23:55.379Z,65.58
2023-05-10T20:26:21.865Z,64.58
2023-05-10T20:28:48.202Z,64.23
2023-05-10T20:31:14.599Z,64.16
2023-05-10T20:33:40.919Z,65.02
2023-05-10T20:36:09.427Z,64.14
2023-05-10T20:38:36.168Z,64.22
2023-05-10T20:41:02.546Z,64.55
2023-05-10T20:43:29.115Z,64.24
2023-05-10T20:45:55.536Z,66.35
2023-05-10T20:48:21.879Z,67.35
2023-05-10T20:50:48.263Z,69.29
2023-05-10T20:53:14.666Z,70.12
2023-05-10T20:55:41.016Z,70.71
2023-05-10T20:58:07.432Z,71.50
2023-05-10T21:00:33.792Z,70.48
2023-05-10T21:03:00.267Z,69.23
2023-05-10T21:05:26.812Z,70.45
2023-05-10T21:07:54.145Z,69.71
2023-05-10T21:10:21.430Z,69.83
2023-05-10T21:12:47.890Z,70.80
2023-05-10T21:15:14.235Z,72.62
2023-05-10T21:17:40.591Z,72.71
2023-05-10T21:20:07.800Z,72.54
2023-05-10T21:22:34.137Z,72.29
2023-05-10T21:25:00.767Z,72.35
2023-05-10T21:27:27.122Z,72.76
2023-05-10T21:29:53.572Z,73.22
2023-05-10T21:32:19.977Z,74.10
2023-05-10T21:34:46.541Z,74.39
2023-05-10T21:37:13.029Z,74.30
2023-05-10T21:39:39.354Z,73.49
2023-05-10T21:42:05.929Z,74.31
2023-05-10T21:44:32.459Z,73.42
2023-05-10T21:46:58.882Z,73.00
2023-05-10T21:49:25.375Z,73.02
2023-05-10T21:51:52.015Z,72.08
2023-05-10T21:54:18.443Z,71.88
2023-05-10T21:56:44.874Z,71.54
2023-05-10T21:59:11.210Z,68.53
2023-05-10T22:01:37.555Z,67.79
2023-05-10T22:04:03.939Z,66.98
2023-05-10T22:06:30.672Z,67.28
2023-05-10T22:08:57.020Z,66.79
2023-05-10T22:11:23.619Z,66.02
2023-05-10T22:13:49.981Z,65.66
2023-05-10T22:16:16.426Z,65.76
2023-05-10T22:18:43.475Z,66.32
2023-05-10T22:21:10.487Z,66.37
2023-05-10T22:23:36.859Z,66.28
2023-05-10T22:26:03.730Z,65.76
2023-05-10T22:28:30.231Z,66.34
2023-05-10T22:30:56.756Z,66.65
2023-05-10T22:33:23.128Z,65.65
2023-05-10T22:35:49.452Z,65.61
2023-05-10T22:38:15.814Z,65.87
2023-05-10T22:40:42.340Z,65.79
2023-05-10T22:43:08.768Z,65.25
2023-05-10T22:45:35.118Z,64.99
2023-05-10T22:48:04.975Z,65.38
2023-05-10T22:50:31.725Z,65.86
2023-05-10T22:52:58.046Z,64.93
2023-05-10T22:55:24.481Z,64.91
2023-05-10T22:57:51.750Z,65.52
2023-05-10T23:00:18.448Z,65.03
2023-05-10T23:02:45.283Z,64.87
2023-05-10T23:05:11.697Z,64.77
2023-05-10T23:07:38.230Z,64.50
2023-05-10T23:10:07.275Z,64.81
2023-05-10T23:12:33.835Z,64.14
2023-05-10T23:15:00.364Z,64.84
2023-05-10T23:17:26.722Z,66.98
2023-05-10T23:19:53.047Z,67.32
2023-05-10T23:22:19.377Z,68.91
2023-05-10T23:24:45.816Z,68.02
2023-05-10T23:27:12.197Z,68.35
2023-05-10T23:29:38.525Z,68.50
2023-05-10T23:32:05.364Z,69.30
2023-05-10T23:34:32.153Z,70.04
2023-05-10T23:36:58.480Z,69.09
2023-05-10T23:39:24.823Z,69.05
2023-05-10T23:41:51.745Z,70.53
2023-05-10T23:44:18.172Z,71.01
2023-05-10T23:46:44.538Z,70.96
2023-05-10T23:49:10.956Z,72.69
2023-05-10T23:51:37.264Z,72.88
2023-05-10T23:54:03.587Z,72.84
2023-05-10T23:56:29.905Z,72.83
2023-05-10T23:58:56.340Z,72.89
